sensor_id;sensor_type;location;lat;lon;timestamp;temperature;humidity
40289;DHT22;28991;52.028;5.526;2023-04-05T00:00:28;18.60;38.20
40289;DHT22;28991;52.028;5.526;2023-04-05T00:02:56;18.30;37.40
40289;DHT22;28991;52.028;5.526;2023-04-05T00:05:22;18.30;37.40
40289;DHT22;28991;52.028;5.526;2023-04-05T00:07:56;18.30;37.50
40289;DHT22;28991;52.028;5.526;2023-04-05T00:10:22;18.30;38.10
40289;DHT22;28991;52.028;5.526;2023-04-05T00:12:47;18.50;37.70
40289;DHT22;28991;52.028;5.526;2023-04-05T00:15:15;18.20;37.50
40289;DHT22;28991;52.028;5.526;2023-04-05T00:17:40;18.30;37.60
40289;DHT22;28991;52.028;5.526;2023-04-05T00:20:08;18.40;37.70
40289;DHT22;28991;52.028;5.526;2023-04-05T00:22:35;18.30;37.70
40289;DHT22;28991;52.028;5.526;2023-04-05T00:25:02;18.20;37.60
40289;DHT22;28991;52.028;5.526;2023-04-05T00:27:27;18.00;37.50
40289;DHT22;28991;52.028;5.526;2023-04-05T00:29:53;18.00;37.60
40289;DHT22;28991;52.028;5.526;2023-04-05T00:32:18;18.10;37.70
40289;DHT22;28991;52.028;5.526;2023-04-05T00:34:44;18.20;37.70
40289;DHT22;28991;52.028;5.526;2023-04-05T00:37:10;18.30;37.80
40289;DHT22;28991;52.028;5.526;2023-04-05T00:39:36;18.20;37.80
40289;DHT22;28991;52.028;5.526;2023-04-05T00:42:02;18.10;37.90
40289;DHT22;28991;52.028;5.526;2023-04-05T00:44:29;18.30;37.90
40289;DHT22;28991;52.028;5.526;2023-04-05T00:47:03;18.30;38.00
40289;DHT22;28991;52.028;5.526;2023-04-05T00:49:29;18.40;38.10
40289;DHT22;28991;52.028;5.526;2023-04-05T00:51:56;18.20;38.00
40289;DHT22;28991;52.028;5.526;2023-04-05T00:54:23;18.20;38.00
40289;DHT22;28991;52.028;5.526;2023-04-05T00:56:50;18.20;38.00
40289;DHT22;28991;52.028;5.526;2023-04-05T00:59:20;18.40;38.10
40289;DHT22;28991;52.028;5.526;2023-04-05T01:01:52;18.30;38.10
40289;DHT22;28991;52.028;5.526;2023-04-05T01:04:27;18.20;38.10
40289;DHT22;28991;52.028;5.526;2023-04-05T01:07:09;17.90;38.00
40289;DHT22;28991;52.028;5.526;2023-04-05T01:09:56;18.00;38.00
40289;DHT22;28991;52.028;5.526;2023-04-05T01:12:27;18.30;38.20
40289;DHT22;28991;52.028;5.526;2023-04-05T01:14:54;18.30;38.20
40289;DHT22;28991;52.028;5.526;2023-04-05T01:17:22;18.30;38.30
40289;DHT22;28991;52.028;5.526;2023-04-05T01:19:49;18.20;38.20
40289;DHT22;28991;52.028;5.526;2023-04-05T01:33:55;18.10;38.40
40289;DHT22;28991;52.028;5.526;2023-04-05T01:36:27;18.10;38.30
40289;DHT22;28991;52.028;5.526;2023-04-05T01:38:57;18.10;38.40
40289;DHT22;28991;52.028;5.526;2023-04-05T01:41:23;17.90;38.20
40289;DHT22;28991;52.028;5.526;2023-04-05T01:43:48;18.10;38.50
40289;DHT22;28991;52.028;5.526;2023-04-05T01:46:14;18.10;38.50
40289;DHT22;28991;52.028;5.526;2023-04-05T01:48:39;18.10;38.40
40289;DHT22;28991;52.028;5.526;2023-04-05T01:51:05;18.10;38.60
40289;DHT22;28991;52.028;5.526;2023-04-05T01:53:31;17.90;38.40
40289;DHT22;28991;52.028;5.526;2023-04-05T01:56:00;18.10;38.60
40289;DHT22;28991;52.028;5.526;2023-04-05T01:58:26;18.30;38.70
40289;DHT22;28991;52.028;5.526;2023-04-05T02:00:55;18.20;38.60
40289;DHT22;28991;52.028;5.526;2023-04-05T02:03:22;18.00;38.60
40289;DHT22;28991;52.028;5.526;2023-04-05T02:05:48;18.10;38.60
40289;DHT22;28991;52.028;5.526;2023-04-05T02:08:13;18.00;38.60
40289;DHT22;28991;52.028;5.526;2023-04-05T02:10:39;18.10;38.60
40289;DHT22;28991;52.028;5.526;2023-04-05T02:13:05;17.90;38.60
40289;DHT22;28991;52.028;5.526;2023-04-05T02:15:31;18.00;38.70
40289;DHT22;28991;52.028;5.526;2023-04-05T02:17:58;17.90;38.70
40289;DHT22;28991;52.028;5.526;2023-04-05T02:20:27;18.00;38.70
40289;DHT22;28991;52.028;5.526;2023-04-05T02:22:53;18.00;38.70
40289;DHT22;28991;52.028;5.526;2023-04-05T02:25:19;18.00;38.70
40289;DHT22;28991;52.028;5.526;2023-04-05T02:27:45;18.00;38.70
40289;DHT22;28991;52.028;5.526;2023-04-05T02:30:11;18.00;38.80
40289;DHT22;28991;52.028;5.526;2023-04-05T02:32:39;18.00;38.80
40289;DHT22;28991;52.028;5.526;2023-04-05T02:35:08;18.00;38.90
40289;DHT22;28991;52.028;5.526;2023-04-05T02:37:34;18.00;38.90
40289;DHT22;28991;52.028;5.526;2023-04-05T02:40:00;18.20;39.00
40289;DHT22;28991;52.028;5.526;2023-04-05T02:42:25;17.90;38.90
40289;DHT22;28991;52.028;5.526;2023-04-05T02:44:52;18.00;38.90
40289;DHT22;28991;52.028;5.526;2023-04-05T02:47:18;17.90;38.90
40289;DHT22;28991;52.028;5.526;2023-04-05T02:49:48;17.90;39.00
40289;DHT22;28991;52.028;5.526;2023-04-05T02:52:14;18.00;39.10
40289;DHT22;28991;52.028;5.526;2023-04-05T02:54:40;17.30;38.80
40289;DHT22;28991;52.028;5.526;2023-04-05T02:57:06;17.90;39.00
40289;DHT22;28991;52.028;5.526;2023-04-05T02:59:35;17.90;39.10
40289;DHT22;28991;52.028;5.526;2023-04-05T03:02:01;18.00;39.10
40289;DHT22;28991;52.028;5.526;2023-04-05T03:04:26;17.50;38.80
40289;DHT22;28991;52.028;5.526;2023-04-05T03:06:52;18.00;39.10
40289;DHT22;28991;52.028;5.526;2023-04-05T03:09:20;18.00;39.20
40289;DHT22;28991;52.028;5.526;2023-04-05T03:11:45;17.90;39.10
40289;DHT22;28991;52.028;5.526;2023-04-05T03:14:11;18.10;39.20
40289;DHT22;28991;52.028;5.526;2023-04-05T03:16:37;18.00;39.20
40289;DHT22;28991;52.028;5.526;2023-04-05T03:19:06;18.00;39.20
40289;DHT22;28991;52.028;5.526;2023-04-05T03:21:32;17.90;39.10
40289;DHT22;28991;52.028;5.526;2023-04-05T03:23:58;17.90;39.20
40289;DHT22;28991;52.028;5.526;2023-04-05T03:26:24;18.00;39.20
40289;DHT22;28991;52.028;5.526;2023-04-05T03:28:50;17.90;39.20
40289;DHT22;28991;52.028;5.526;2023-04-05T03:31:16;17.70;39.10
40289;DHT22;28991;52.028;5.526;2023-04-05T03:33:41;18.00;39.30
40289;DHT22;28991;52.028;5.526;2023-04-05T03:36:08;17.90;39.30
40289;DHT22;28991;52.028;5.526;2023-04-05T03:38:34;17.90;39.30
40289;DHT22;28991;52.028;5.526;2023-04-05T03:41:01;17.80;39.30
40289;DHT22;28991;52.028;5.526;2023-04-05T03:43:26;18.10;39.40
40289;DHT22;28991;52.028;5.526;2023-04-05T03:45:52;17.90;39.40
40289;DHT22;28991;52.028;5.526;2023-04-05T03:48:18;18.10;39.40
40289;DHT22;28991;52.028;5.526;2023-04-05T03:50:45;17.90;39.40
40289;DHT22;28991;52.028;5.526;2023-04-05T03:53:11;17.90;39.40
40289;DHT22;28991;52.028;5.526;2023-04-05T03:55:36;18.10;39.50
40289;DHT22;28991;52.028;5.526;2023-04-05T03:58:02;17.80;39.40
40289;DHT22;28991;52.028;5.526;2023-04-05T04:00:28;17.60;39.30
40289;DHT22;28991;52.028;5.526;2023-04-05T04:02:54;17.70;39.40
40289;DHT22;28991;52.028;5.526;2023-04-05T04:05:20;17.70;39.40
40289;DHT22;28991;52.028;5.526;2023-04-05T04:07:46;17.90;39.40
40289;DHT22;28991;52.028;5.526;2023-04-05T04:10:14;17.80;39.40
40289;DHT22;28991;52.028;5.526;2023-04-05T04:12:42;18.20;39.60
40289;DHT22;28991;52.028;5.526;2023-04-05T04:15:08;17.80;39.60
40289;DHT22;28991;52.028;5.526;2023-04-05T04:17:35;17.80;39.50
40289;DHT22;28991;52.028;5.526;2023-04-05T04:20:02;18.00;39.60
40289;DHT22;28991;52.028;5.526;2023-04-05T04:22:37;17.80;39.50
40289;DHT22;28991;52.028;5.526;2023-04-05T04:25:08;17.10;39.40
40289;DHT22;28991;52.028;5.526;2023-04-05T04:27:37;17.80;39.50
40289;DHT22;28991;52.028;5.526;2023-04-05T04:30:07;18.10;39.70
40289;DHT22;28991;52.028;5.526;2023-04-05T04:32:35;17.80;39.60
40289;DHT22;28991;52.028;5.526;2023-04-05T04:35:24;18.50;40.00
40289;DHT22;28991;52.028;5.526;2023-04-05T04:38:05;17.20;39.30
40289;DHT22;28991;52.028;5.526;2023-04-05T04:40:38;17.70;39.60
40289;DHT22;28991;52.028;5.526;2023-04-05T04:43:08;17.80;39.70
40289;DHT22;28991;52.028;5.526;2023-04-05T04:45:47;17.80;39.60
40289;DHT22;28991;52.028;5.526;2023-04-05T04:48:14;17.90;39.60
40289;DHT22;28991;52.028;5.526;2023-04-05T04:50:41;17.70;39.60
40289;DHT22;28991;52.028;5.526;2023-04-05T04:53:07;17.60;39.50
40289;DHT22;28991;52.028;5.526;2023-04-05T04:55:33;17.80;39.70
40289;DHT22;28991;52.028;5.526;2023-04-05T04:58:01;17.90;39.80
40289;DHT22;28991;52.028;5.526;2023-04-05T05:00:34;17.60;39.60
40289;DHT22;28991;52.028;5.526;2023-04-05T05:03:00;17.80;39.70
40289;DHT22;28991;52.028;5.526;2023-04-05T05:05:26;18.90;42.30
40289;DHT22;28991;52.028;5.526;2023-04-05T05:07:51;17.90;42.60
40289;DHT22;28991;52.028;5.526;2023-04-05T05:10:18;18.20;35.20
40289;DHT22;28991;52.028;5.526;2023-04-05T05:12:44;18.40;35.00
40289;DHT22;28991;52.028;5.526;2023-04-05T05:15:11;18.70;33.20
40289;DHT22;28991;52.028;5.526;2023-04-05T05:17:37;18.70;32.10
40289;DHT22;28991;52.028;5.526;2023-04-05T05:20:04;18.70;31.20
40289;DHT22;28991;52.028;5.526;2023-04-05T05:22:37;18.70;30.80
40289;DHT22;28991;52.028;5.526;2023-04-05T05:25:04;18.80;30.40
40289;DHT22;28991;52.028;5.526;2023-04-05T05:27:30;18.80;30.10
40289;DHT22;28991;52.028;5.526;2023-04-05T05:29:55;18.80;30.00
40289;DHT22;28991;52.028;5.526;2023-04-05T05:32:22;18.80;30.70
40289;DHT22;28991;52.028;5.526;2023-04-05T05:34:48;18.70;31.30
40289;DHT22;28991;52.028;5.526;2023-04-05T05:37:13;18.70;31.60
40289;DHT22;28991;52.028;5.526;2023-04-05T05:39:39;18.70;32.30
40289;DHT22;28991;52.028;5.526;2023-04-05T05:42:05;18.90;32.40
40289;DHT22;28991;52.028;5.526;2023-04-05T05:44:31;18.90;32.10
40289;DHT22;28991;52.028;5.526;2023-04-05T05:46:57;19.10;31.90
40289;DHT22;28991;52.028;5.526;2023-04-05T05:49:23;19.10;32.50
40289;DHT22;28991;52.028;5.526;2023-04-05T05:51:49;19.20;32.20
40289;DHT22;28991;52.028;5.526;2023-04-05T05:54:16;19.40;32.20
40289;DHT22;28991;52.028;5.526;2023-04-05T05:56:42;19.30;32.00
40289;DHT22;28991;52.028;5.526;2023-04-05T05:59:07;19.30;31.80
40289;DHT22;28991;52.028;5.526;2023-04-05T06:01:33;19.40;31.80
40289;DHT22;28991;52.028;5.526;2023-04-05T06:04:05;19.50;31.80
40289;DHT22;28991;52.028;5.526;2023-04-05T06:06:31;19.50;31.60
40289;DHT22;28991;52.028;5.526;2023-04-05T06:08:58;19.60;31.70
40289;DHT22;28991;52.028;5.526;2023-04-05T06:11:24;19.60;31.60
40289;DHT22;28991;52.028;5.526;2023-04-05T06:13:51;19.60;31.40
40289;DHT22;28991;52.028;5.526;2023-04-05T06:16:17;19.70;31.20
40289;DHT22;28991;52.028;5.526;2023-04-05T06:18:43;19.70;31.30
40289;DHT22;28991;52.028;5.526;2023-04-05T06:21:09;20.00;31.20
40289;DHT22;28991;52.028;5.526;2023-04-05T06:23:34;20.10;31.00
40289;DHT22;28991;52.028;5.526;2023-04-05T06:26:00;20.30;31.00
40289;DHT22;28991;52.028;5.526;2023-04-05T06:28:26;20.40;30.80
40289;DHT22;28991;52.028;5.526;2023-04-05T06:30:54;20.60;30.40
40289;DHT22;28991;52.028;5.526;2023-04-05T06:33:20;20.90;30.20
40289;DHT22;28991;52.028;5.526;2023-04-05T06:35:45;20.80;30.10
40289;DHT22;28991;52.028;5.526;2023-04-05T06:38:11;21.00;30.00
40289;DHT22;28991;52.028;5.526;2023-04-05T06:40:37;21.20;29.80
40289;DHT22;28991;52.028;5.526;2023-04-05T06:43:03;21.40;29.70
40289;DHT22;28991;52.028;5.526;2023-04-05T06:45:28;21.60;29.50
40289;DHT22;28991;52.028;5.526;2023-04-05T06:47:54;21.70;29.30
40289;DHT22;28991;52.028;5.526;2023-04-05T06:50:20;21.90;29.00
40289;DHT22;28991;52.028;5.526;2023-04-05T06:52:45;22.20;29.00
40289;DHT22;28991;52.028;5.526;2023-04-05T06:55:11;23.20;29.40
40289;DHT22;28991;52.028;5.526;2023-04-05T06:57:39;22.30;29.00
40289;DHT22;28991;52.028;5.526;2023-04-05T07:00:06;22.50;28.80
40289;DHT22;28991;52.028;5.526;2023-04-05T07:02:36;22.70;28.80
40289;DHT22;28991;52.028;5.526;2023-04-05T07:05:02;22.90;28.90
40289;DHT22;28991;52.028;5.526;2023-04-05T07:07:31;23.00;29.30
40289;DHT22;28991;52.028;5.526;2023-04-05T07:09:57;23.00;28.70
40289;DHT22;28991;52.028;5.526;2023-04-05T07:12:23;23.40;28.60
40289;DHT22;28991;52.028;5.526;2023-04-05T07:14:48;23.40;28.40
40289;DHT22;28991;52.028;5.526;2023-04-05T07:17:14;23.60;28.50
40289;DHT22;28991;52.028;5.526;2023-04-05T07:19:40;23.70;28.40
40289;DHT22;28991;52.028;5.526;2023-04-05T07:22:05;23.80;28.40
40289;DHT22;28991;52.028;5.526;2023-04-05T07:24:31;23.90;28.10
40289;DHT22;28991;52.028;5.526;2023-04-05T07:26:57;24.00;28.00
40289;DHT22;28991;52.028;5.526;2023-04-05T07:29:23;24.00;27.80
40289;DHT22;28991;52.028;5.526;2023-04-05T07:31:48;24.20;27.90
40289;DHT22;28991;52.028;5.526;2023-04-05T07:34:14;24.20;27.80
40289;DHT22;28991;52.028;5.526;2023-04-05T07:36:39;24.30;27.70
40289;DHT22;28991;52.028;5.526;2023-04-05T07:39:06;24.50;27.40
40289;DHT22;28991;52.028;5.526;2023-04-05T07:41:31;24.50;26.90
40289;DHT22;28991;52.028;5.526;2023-04-05T07:43:59;24.80;27.10
40289;DHT22;28991;52.028;5.526;2023-04-05T07:46:25;24.80;27.00
40289;DHT22;28991;52.028;5.526;2023-04-05T07:48:52;24.90;27.00
40289;DHT22;28991;52.028;5.526;2023-04-05T07:51:17;25.00;27.00
40289;DHT22;28991;52.028;5.526;2023-04-05T07:53:43;25.10;27.20
40289;DHT22;28991;52.028;5.526;2023-04-05T07:56:12;25.20;27.30
40289;DHT22;28991;52.028;5.526;2023-04-05T07:58:38;25.30;27.30
40289;DHT22;28991;52.028;5.526;2023-04-05T08:01:05;25.30;27.00
40289;DHT22;28991;52.028;5.526;2023-04-05T08:03:31;25.30;26.90
40289;DHT22;28991;52.028;5.526;2023-04-05T08:06:12;25.40;26.80
40289;DHT22;28991;52.028;5.526;2023-04-05T08:08:38;25.50;27.00
40289;DHT22;28991;52.028;5.526;2023-04-05T08:11:04;25.60;27.10
40289;DHT22;28991;52.028;5.526;2023-04-05T08:13:32;25.80;26.40
40289;DHT22;28991;52.028;5.526;2023-04-05T08:15:59;25.80;26.20
40289;DHT22;28991;52.028;5.526;2023-04-05T08:18:25;26.00;26.20
40289;DHT22;28991;52.028;5.526;2023-04-05T08:20:53;26.00;25.80
40289;DHT22;28991;52.028;5.526;2023-04-05T08:23:18;26.00;25.80
40289;DHT22;28991;52.028;5.526;2023-04-05T08:25:44;26.20;26.20
40289;DHT22;28991;52.028;5.526;2023-04-05T08:28:10;26.30;25.80
40289;DHT22;28991;52.028;5.526;2023-04-05T08:30:35;26.20;25.90
40289;DHT22;28991;52.028;5.526;2023-04-05T08:33:01;26.20;25.90
40289;DHT22;28991;52.028;5.526;2023-04-05T08:35:27;26.20;26.00
40289;DHT22;28991;52.028;5.526;2023-04-05T08:37:52;26.20;32.80
40289;DHT22;28991;52.028;5.526;2023-04-05T08:40:18;24.10;35.50
40289;DHT22;28991;52.028;5.526;2023-04-05T08:42:45;23.10;37.80
40289;DHT22;28991;52.028;5.526;2023-04-05T08:45:13;22.30;38.80
40289;DHT22;28991;52.028;5.526;2023-04-05T08:47:39;22.20;40.40
40289;DHT22;28991;52.028;5.526;2023-04-05T08:50:06;21.90;39.70
40289;DHT22;28991;52.028;5.526;2023-04-05T08:52:32;21.60;38.80
40289;DHT22;28991;52.028;5.526;2023-04-05T08:54:58;21.60;39.70
40289;DHT22;28991;52.028;5.526;2023-04-05T08:57:24;21.60;39.80
40289;DHT22;28991;52.028;5.526;2023-04-05T08:59:50;21.90;40.00
40289;DHT22;28991;52.028;5.526;2023-04-05T09:02:17;21.60;38.00
40289;DHT22;28991;52.028;5.526;2023-04-05T09:04:43;21.90;38.40
40289;DHT22;28991;52.028;5.526;2023-04-05T09:07:10;21.90;37.90
40289;DHT22;28991;52.028;5.526;2023-04-05T09:09:36;21.80;38.80
40289;DHT22;28991;52.028;5.526;2023-04-05T09:12:02;21.90;37.30
40289;DHT22;28991;52.028;5.526;2023-04-05T09:14:29;22.00;37.20
40289;DHT22;28991;52.028;5.526;2023-04-05T09:16:55;21.50;37.20
40289;DHT22;28991;52.028;5.526;2023-04-05T09:19:20;21.60;37.90
40289;DHT22;28991;52.028;5.526;2023-04-05T09:24:33;21.60;36.00
40289;DHT22;28991;52.028;5.526;2023-04-05T09:27:02;21.60;36.60
40289;DHT22;28991;52.028;5.526;2023-04-05T09:29:29;21.50;31.70
40289;DHT22;28991;52.028;5.526;2023-04-05T09:31:54;21.50;33.00
40289;DHT22;28991;52.028;5.526;2023-04-05T09:34:20;21.60;33.00
40289;DHT22;28991;52.028;5.526;2023-04-05T09:36:48;21.80;31.40
40289;DHT22;28991;52.028;5.526;2023-04-05T09:39:14;21.70;33.00
40289;DHT22;28991;52.028;5.526;2023-04-05T09:41:58;21.50;32.80
40289;DHT22;28991;52.028;5.526;2023-04-05T09:44:28;21.50;31.70
40289;DHT22;28991;52.028;5.526;2023-04-05T09:47:15;21.90;31.60
40289;DHT22;28991;52.028;5.526;2023-04-05T09:49:41;21.40;28.90
40289;DHT22;28991;52.028;5.526;2023-04-05T09:52:19;21.40;29.90
40289;DHT22;28991;52.028;5.526;2023-04-05T09:54:44;21.60;39.70
40289;DHT22;28991;52.028;5.526;2023-04-05T09:57:10;21.50;28.60
40289;DHT22;28991;52.028;5.526;2023-04-05T09:59:35;21.40;28.40
40289;DHT22;28991;52.028;5.526;2023-04-05T10:02:03;21.40;28.30
40289;DHT22;28991;52.028;5.526;2023-04-05T10:04:37;21.30;28.20
40289;DHT22;28991;52.028;5.526;2023-04-05T10:07:02;21.30;28.10
40289;DHT22;28991;52.028;5.526;2023-04-05T10:09:28;21.20;28.40
40289;DHT22;28991;52.028;5.526;2023-04-05T10:11:53;21.20;27.80
40289;DHT22;28991;52.028;5.526;2023-04-05T10:14:20;21.10;28.00
40289;DHT22;28991;52.028;5.526;2023-04-05T10:16:54;21.10;27.80
40289;DHT22;28991;52.028;5.526;2023-04-05T10:19:28;21.10;28.10
40289;DHT22;28991;52.028;5.526;2023-04-05T10:21:56;21.10;28.20
40289;DHT22;28991;52.028;5.526;2023-04-05T10:24:37;21.10;27.80
40289;DHT22;28991;52.028;5.526;2023-04-05T10:27:07;20.90;34.10
40289;DHT22;28991;52.028;5.526;2023-04-05T10:29:37;21.20;28.10
40289;DHT22;28991;52.028;5.526;2023-04-05T10:32:13;21.30;29.50
40289;DHT22;28991;52.028;5.526;2023-04-05T10:34:44;21.30;28.70
40289;DHT22;28991;52.028;5.526;2023-04-05T10:37:17;21.30;28.30
40289;DHT22;28991;52.028;5.526;2023-04-05T10:39:46;21.40;28.30
40289;DHT22;28991;52.028;5.526;2023-04-05T10:44:44;21.30;27.90
40289;DHT22;28991;52.028;5.526;2023-04-05T10:47:12;21.20;27.80
40289;DHT22;28991;52.028;5.526;2023-04-05T10:49:38;21.20;28.00
40289;DHT22;28991;52.028;5.526;2023-04-05T10:52:04;21.20;28.10
40289;DHT22;28991;52.028;5.526;2023-04-05T10:54:31;21.20;28.00
40289;DHT22;28991;52.028;5.526;2023-04-05T10:56:58;21.10;28.50
40289;DHT22;28991;52.028;5.526;2023-04-05T10:59:24;21.20;28.60
40289;DHT22;28991;52.028;5.526;2023-04-05T11:01:50;21.20;28.10
40289;DHT22;28991;52.028;5.526;2023-04-05T11:04:16;21.20;28.00
40289;DHT22;28991;52.028;5.526;2023-04-05T11:06:41;21.20;28.00
40289;DHT22;28991;52.028;5.526;2023-04-05T11:09:09;21.20;28.10
40289;DHT22;28991;52.028;5.526;2023-04-05T11:11:38;21.20;28.10
40289;DHT22;28991;52.028;5.526;2023-04-05T11:14:23;21.10;28.20
40289;DHT22;28991;52.028;5.526;2023-04-05T11:16:54;21.10;28.40
40289;DHT22;28991;52.028;5.526;2023-04-05T11:22:11;21.10;28.60
40289;DHT22;28991;52.028;5.526;2023-04-05T11:25:00;21.10;28.50
40289;DHT22;28991;52.028;5.526;2023-04-05T11:27:28;21.10;28.50
40289;DHT22;28991;52.028;5.526;2023-04-05T11:29:53;21.10;28.60
40289;DHT22;28991;52.028;5.526;2023-04-05T11:32:20;21.20;28.90
40289;DHT22;28991;52.028;5.526;2023-04-05T11:34:58;21.50;28.40
40289;DHT22;28991;52.028;5.526;2023-04-05T11:40:22;21.10;28.20
40289;DHT22;28991;52.028;5.526;2023-04-05T11:42:48;21.10;28.10
40289;DHT22;28991;52.028;5.526;2023-04-05T11:45:22;21.10;28.10
40289;DHT22;28991;52.028;5.526;2023-04-05T11:47:47;21.10;28.10
40289;DHT22;28991;52.028;5.526;2023-04-05T11:50:12;21.10;28.20
40289;DHT22;28991;52.028;5.526;2023-04-05T11:52:38;20.90;28.10
40289;DHT22;28991;52.028;5.526;2023-04-05T11:55:03;21.00;28.10
40289;DHT22;28991;52.028;5.526;2023-04-05T11:57:30;21.10;28.00
40289;DHT22;28991;52.028;5.526;2023-04-05T11:59:55;21.00;27.60
40289;DHT22;28991;52.028;5.526;2023-04-05T12:02:21;21.00;27.60
40289;DHT22;28991;52.028;5.526;2023-04-05T12:04:53;21.00;27.50
40289;DHT22;28991;52.028;5.526;2023-04-05T12:07:20;21.00;27.70
40289;DHT22;28991;52.028;5.526;2023-04-05T12:12:32;20.90;27.50
40289;DHT22;28991;52.028;5.526;2023-04-05T12:14:59;20.90;27.20
40289;DHT22;28991;52.028;5.526;2023-04-05T12:20:02;20.90;27.40
40289;DHT22;28991;52.028;5.526;2023-04-05T12:22:28;20.90;27.10
40289;DHT22;28991;52.028;5.526;2023-04-05T12:24:53;20.90;27.30
40289;DHT22;28991;52.028;5.526;2023-04-05T12:27:19;20.90;27.20
40289;DHT22;28991;52.028;5.526;2023-04-05T12:30:03;20.90;27.30
40289;DHT22;28991;52.028;5.526;2023-04-05T12:32:34;21.10;27.30
40289;DHT22;28991;52.028;5.526;2023-04-05T12:35:00;21.10;27.20
40289;DHT22;28991;52.028;5.526;2023-04-05T12:37:26;20.90;27.00
40289;DHT22;28991;52.028;5.526;2023-04-05T12:39:53;21.00;27.30
40289;DHT22;28991;52.028;5.526;2023-04-05T12:42:18;21.10;26.70
40289;DHT22;28991;52.028;5.526;2023-04-05T12:44:44;21.10;27.10
40289;DHT22;28991;52.028;5.526;2023-04-05T12:47:10;21.10;43.60
40289;DHT22;28991;52.028;5.526;2023-04-05T12:49:36;21.00;26.90
40289;DHT22;28991;52.028;5.526;2023-04-05T12:52:02;21.10;27.00
40289;DHT22;28991;52.028;5.526;2023-04-05T12:54:27;21.00;26.70
40289;DHT22;28991;52.028;5.526;2023-04-05T12:56:53;21.00;26.80
40289;DHT22;28991;52.028;5.526;2023-04-05T12:59:19;20.90;26.90
40289;DHT22;28991;52.028;5.526;2023-04-05T13:01:44;21.00;27.00
40289;DHT22;28991;52.028;5.526;2023-04-05T13:04:10;21.30;26.80
40289;DHT22;28991;52.028;5.526;2023-04-05T13:06:35;20.90;27.10
40289;DHT22;28991;52.028;5.526;2023-04-05T13:09:01;20.90;26.80
40289;DHT22;28991;52.028;5.526;2023-04-05T13:31:26;21.80;25.90
40289;DHT22;28991;52.028;5.526;2023-04-05T13:33:52;22.00;25.80
40289;DHT22;28991;52.028;5.526;2023-04-05T13:36:18;21.60;26.60
40289;DHT22;28991;52.028;5.526;2023-04-05T13:38:43;21.30;26.00
40289;DHT22;28991;52.028;5.526;2023-04-05T13:41:09;21.20;25.80
40289;DHT22;28991;52.028;5.526;2023-04-05T13:43:34;21.20;26.00
40289;DHT22;28991;52.028;5.526;2023-04-05T13:46:00;21.10;26.20
40289;DHT22;28991;52.028;5.526;2023-04-05T13:48:25;21.00;26.20
40289;DHT22;28991;52.028;5.526;2023-04-05T13:50:51;21.00;26.30
40289;DHT22;28991;52.028;5.526;2023-04-05T13:53:16;20.90;26.40
40289;DHT22;28991;52.028;5.526;2023-04-05T13:55:42;20.90;26.40
40289;DHT22;28991;52.028;5.526;2023-04-05T13:58:07;20.90;26.50
40289;DHT22;28991;52.028;5.526;2023-04-05T14:00:33;20.80;26.50
40289;DHT22;28991;52.028;5.526;2023-04-05T14:02:58;20.80;26.50
40289;DHT22;28991;52.028;5.526;2023-04-05T14:05:24;20.80;26.00
40289;DHT22;28991;52.028;5.526;2023-04-05T14:07:50;20.90;25.80
40289;DHT22;28991;52.028;5.526;2023-04-05T14:10:15;21.00;26.00
40289;DHT22;28991;52.028;5.526;2023-04-05T14:12:42;20.90;26.00
40289;DHT22;28991;52.028;5.526;2023-04-05T14:15:07;20.80;26.00
40289;DHT22;28991;52.028;5.526;2023-04-05T14:17:33;20.90;25.10
40289;DHT22;28991;52.028;5.526;2023-04-05T14:19:58;20.90;26.00
40289;DHT22;28991;52.028;5.526;2023-04-05T14:22:24;20.90;25.80
40289;DHT22;28991;52.028;5.526;2023-04-05T14:24:50;20.90;26.00
40289;DHT22;28991;52.028;5.526;2023-04-05T14:27:15;20.70;25.90
40289;DHT22;28991;52.028;5.526;2023-04-05T14:29:41;20.80;26.00
40289;DHT22;28991;52.028;5.526;2023-04-05T14:32:08;20.80;26.00
40289;DHT22;28991;52.028;5.526;2023-04-05T14:34:33;20.80;26.10
40289;DHT22;28991;52.028;5.526;2023-04-05T14:37:00;20.70;26.10
40289;DHT22;28991;52.028;5.526;2023-04-05T14:39:28;20.70;26.20
40289;DHT22;28991;52.028;5.526;2023-04-05T14:41:53;20.70;26.30
40289;DHT22;28991;52.028;5.526;2023-04-05T14:44:20;20.60;26.30
40289;DHT22;28991;52.028;5.526;2023-04-05T14:46:46;21.20;26.70
40289;DHT22;28991;52.028;5.526;2023-04-05T14:49:11;20.60;26.50
40289;DHT22;28991;52.028;5.526;2023-04-05T14:51:37;20.60;26.70
40289;DHT22;28991;52.028;5.526;2023-04-05T14:54:02;20.60;26.70
40289;DHT22;28991;52.028;5.526;2023-04-05T14:56:28;20.50;26.60
40289;DHT22;28991;52.028;5.526;2023-04-05T14:58:54;20.60;26.90
40289;DHT22;28991;52.028;5.526;2023-04-05T15:01:19;20.50;26.90
40289;DHT22;28991;52.028;5.526;2023-04-05T15:03:45;20.50;26.90
40289;DHT22;28991;52.028;5.526;2023-04-05T15:06:12;20.50;27.00
40289;DHT22;28991;52.028;5.526;2023-04-05T15:08:38;20.50;27.10
40289;DHT22;28991;52.028;5.526;2023-04-05T15:11:04;20.50;27.10
40289;DHT22;28991;52.028;5.526;2023-04-05T15:13:29;20.40;27.20
40289;DHT22;28991;52.028;5.526;2023-04-05T15:15:55;20.40;27.20
40289;DHT22;28991;52.028;5.526;2023-04-05T15:18:20;20.40;27.30
40289;DHT22;28991;52.028;5.526;2023-04-05T15:20:46;20.40;27.40
40289;DHT22;28991;52.028;5.526;2023-04-05T15:23:12;20.40;27.40
40289;DHT22;28991;52.028;5.526;2023-04-05T15:25:37;20.30;27.50
40289;DHT22;28991;52.028;5.526;2023-04-05T15:28:03;20.30;27.50
40289;DHT22;28991;52.028;5.526;2023-04-05T15:30:30;20.30;27.60
40289;DHT22;28991;52.028;5.526;2023-04-05T15:32:57;20.30;27.70
40289;DHT22;28991;52.028;5.526;2023-04-05T15:35:22;20.30;27.70
40289;DHT22;28991;52.028;5.526;2023-04-05T15:37:48;20.30;27.70
40289;DHT22;28991;52.028;5.526;2023-04-05T15:40:14;20.30;27.80
40289;DHT22;28991;52.028;5.526;2023-04-05T15:42:39;20.30;27.80
40289;DHT22;28991;52.028;5.526;2023-04-05T15:45:05;20.40;28.00
40289;DHT22;28991;52.028;5.526;2023-04-05T15:47:31;20.30;28.00
40289;DHT22;28991;52.028;5.526;2023-04-05T15:49:57;20.30;28.20
40289;DHT22;28991;52.028;5.526;2023-04-05T15:52:22;20.30;28.20
40289;DHT22;28991;52.028;5.526;2023-04-05T15:54:48;20.30;28.20
40289;DHT22;28991;52.028;5.526;2023-04-05T15:57:13;20.30;28.10
40289;DHT22;28991;52.028;5.526;2023-04-05T15:59:39;20.30;28.20
40289;DHT22;28991;52.028;5.526;2023-04-05T16:02:05;20.30;28.20
40289;DHT22;28991;52.028;5.526;2023-04-05T16:04:30;20.30;28.40
40289;DHT22;28991;52.028;5.526;2023-04-05T16:06:56;20.30;28.30
40289;DHT22;28991;52.028;5.526;2023-04-05T16:09:21;20.70;28.60
40289;DHT22;28991;52.028;5.526;2023-04-05T16:11:47;20.30;28.50
40289;DHT22;28991;52.028;5.526;2023-04-05T16:14:13;20.30;28.50
40289;DHT22;28991;52.028;5.526;2023-04-05T16:16:39;20.20;28.50